Flight Number: EUR3070 Duration: 10:00
Departure: Lisboa / Portela (LPPT) at 07:30 Distance: 4163 Nm
Arrival: Rio de Janeiro (SBGL) at 17:30 Equipment: A340

Weather Information
Lisboa / Portela, Portugal (LPPT) 38-46N 009-08W 123M Oct 17, 2018 - 11:30 PM EDT / 2018.10.18 0330 UTC
Wind: from the NW (320 degrees) at 13 MPH (11 KT):0
Visibility: greater than 7 mile(s):0
Sky conditions: mostly clear Temperature: 57 F (14 C) Dew Point: 53 F (12 C) Relative Humidity: 87% Pressure (altimeter): 29.83 in. Hg (1010 hPa)
ob: LPPT 180330Z 32011KT 9999 FEW014 14/12 Q1010 cycle: 3
Sunrise: 06:52 Sunset: 17:50 (UTC)

Galeao, Brazil (SBGL) 22-49S 043-15W 42M Oct 17, 2018 - 11:00 PM EDT / 2018.10.18 0300 UTC
Wind: from the ESE (110 degrees) at 6 MPH (5 KT):0
Visibility: 3 mile(s):0
Sky conditions: overcast Temperature: 75 F (24 C) Dew Point: 71 F (22 C) Relative Humidity: 88% Pressure (altimeter): 29.91 in. Hg (1013 hPa)
ob: SBGL 180300Z 11005KT 6000 FEW015 OVC100 24/22 Q1013 cycle: 3
Sunrise: 08:19 Sunset: 20:56 (UTC)

TAF:2018/10/18 06:59 TAF SBGL 180300Z 1806/1912 08005KT 9999 FEW015 TN22/1808Z TX28/1817Z BECMG 1808/1811 35005KT 6000 SCT011 BECMG 1815/1817 12010KT 9999 SCT020 FE W030TCU BECMG 1821/1823 09005KT BKN020 BECMG 1904/1906 22005KT 7000 BKN015 R MK PGZ

Previous Pireps for this route
Date Aircraft Flight time Fuel used Landing rate On time
2016-04-05A34008.45135994-163Yes
(pireps marked green are flown by you)

Route map